Flight Track Log - Related Links

Times and Time Zones

All times are in EDT time to prevent confusion due to time zone crossing. See the DLH917 flight status page for this flight to view local times or setup timezone preferences in your user account.

Time Position Orientation Groundspeed Altitude Reporting Facility
EDT Latitude Longitude Course Direction KTS MPH feet Rate Location/Type
Wed 02:30:00 PM 51.4166 0.0430 101° East  Level Estimated
Wed 02:31:00 PM 51.3958 0.2108 101° East  Level Estimated
Wed 02:32:00 PM 51.3748 0.3784 101° East  Level Estimated
Wed 02:33:00 PM 51.3535 0.5459 101° East  Level Estimated
Wed 02:34:00 PM 51.3320 0.7133 102° East  Level Estimated
Wed 02:35:00 PM 51.3102 0.8805 102° East  Level Estimated
Wed 02:36:00 PM 51.2883 1.0475 102° East  Level Estimated
Wed 02:37:00 PM 51.2660 1.2144 102° East  Level Estimated
Wed 02:38:00 PM 51.2436 1.3811 102° East  Level Estimated
Wed 02:39:00 PM 51.2209 1.5476 102° East  Level Estimated
Wed 02:40:00 PM 51.1980 1.7140 102° East  Level Estimated
Wed 02:41:00 PM 51.1748 1.8802 102° East  Level Estimated
Wed 02:42:00 PM 51.1514 2.0462 103° East  Level Estimated
Wed 02:43:00 PM 51.1278 2.2121 103° East  Level Estimated
Wed 02:44:00 PM 51.1039 2.3778 103° East  Level Estimated
Wed 02:45:00 PM 51.0798 2.5433 103° East  Level Estimated
Wed 02:46:00 PM 51.0555 2.7087 103° East  Level Estimated
Wed 02:47:00 PM 51.0309 2.8739 103° East  Level Estimated
Wed 02:48:00 PM 51.0061 3.0389 103° East  Level Estimated
Wed 02:49:00 PM 50.9811 3.2037 104° East  Level Estimated
Wed 02:50:00 PM 50.9558 3.3684 104° East  Level Estimated
Wed 02:51:00 PM 50.9303 3.5329 104° East  Level Estimated
Wed 02:52:00 PM 50.9046 3.6971 104° East  Level Estimated
Wed 02:53:00 PM 50.8786 3.8613 104° East  Level Estimated
Wed 02:54:00 PM 50.8524 4.0252 104° East  Level Estimated
Wed 02:55:00 PM 50.8260 4.1889 104° East  Level Estimated
Wed 02:56:00 PM 50.7994 4.3525 104° East  Level Estimated
Wed 02:57:00 PM 50.7725 4.5159 105° East  Level Estimated
Wed 02:58:00 PM 50.7454 4.6790 105° East  Level Estimated
Wed 02:59:00 PM 50.7181 4.8420 105° East  Level Estimated
Wed 03:00:00 PM 50.6905 5.0048 105° East  Level Estimated
Wed 03:01:00 PM 50.6627 5.1674 105° East  Level Estimated
Wed 03:02:00 PM 50.6347 5.3299 105° East  Level Estimated
Wed 03:03:00 PM 50.6065 5.4921 105° East  Level Estimated
Wed 03:04:00 PM 50.5780 5.6541 105° East  Level Estimated
Wed 03:05:00 PM 50.5494 5.8159 106° East  Level Estimated
Wed 03:06:00 PM 50.5205 5.9776 106° East  Level Estimated
Wed 03:07:00 PM 50.4877 6.1588 106° East  Level Estimated
Wed 03:08:00 PM 50.4548 6.3397 106° East  Level Estimated
Wed 03:09:00 PM 50.4215 6.5204 106° East  Level Estimated
Wed 03:10:00 PM 50.3879 6.7008 106° East  Level Estimated
Wed 03:11:00 PM 50.3541 6.8810 106° East  Level Estimated
Wed 03:12:00 PM 50.3200 7.0609 106° East  Level Estimated
Wed 03:13:00 PM 50.2856 7.2405 107° East  Level Estimated
Wed 03:14:00 PM 50.2509 7.4199 107° East  Level Estimated
Wed 03:15:00 PM 50.2160 7.5991 107° East  Level Estimated
Wed 03:16:00 PM 50.1808 7.7779 107° East  Level Estimated
Wed 03:17:00 PM 50.1453 7.9565 107° East  Level Estimated
Wed 03:18:00 PM 50.1095 8.1349 107° East  Level Estimated
Wed 03:19:00 PM 50.0735 8.3129 107° East  Level Estimated
Wed 03:20:00 PM 50.0372 8.4907 108° East  Level Estimated
Wed 03:21:00 PM 50.0264 8.5431 108° East  Level Estimated
Wed 03:22:00 PM 50.0264 8.5431 73° East  Level Estimated
Wed 03:23:00 PM 50.0264 8.5431 73° East  Level Estimated
Wed 03:24:00 PM 50.0264 8.5431 73° East  Level Estimated
Wed 03:25:00 PM 50.0264 8.5431 73° East  Level Estimated
Wed 03:26:00 PM 50.0264 8.5431 73° East  Level Estimated
Wed 03:27:00 PM 50.0264 8.5431 73° East  Level Estimated
Wed 03:28:00 PM 50.0264 8.5431 73° East  Level Estimated
Wed 03:29:00 PM 50.0264 8.5431 73° East  Level Estimated
Wed 03:30:00 PM 50.0264 8.5431 73° East  Level Estimated
Wed 03:31:00 PM 50.0264 8.5431 73° East  Level Estimated
Wed 03:32:00 PM 50.0264 8.5431 73° East  Level Estimated

Login

Don't have an account? Register now (free) for customized features, flight alerts, and more!